Time;durP1;ratioP1;P1;durP2;ratioP2;P2;SDS_P1;SDS_P2;PMS_P1;PMS_P2;Temp;Humidity;BMP_temperature;BMP_pressure;BME280_temperature;BME280_humidity;BME280_pressure;Samples;Min_cycle;Max_cycle;Signal;HPM_P1;HPM_P2
2023/06/01 00:02:26;;;;;;;12.17;8.10;;;13.00;99.90;;;;;;4961953;29;20501;-79
2023/06/01 00:04:55;;;;;;;14.30;7.60;;;13.00;99.90;;;;;;4960232;29;20462;-79
2023/06/01 00:07:23;;;;;;;13.43;7.53;;;12.90;99.90;;;;;;4961361;29;20494;-79
2023/06/01 00:09:52;;;;;;;13.97;8.53;;;12.90;99.90;;;;;;4959491;29;20545;-79
2023/06/01 00:12:20;;;;;;;16.53;8.17;;;12.90;99.90;;;;;;4959431;29;20528;-79
2023/06/01 00:14:48;;;;;;;13.23;8.70;;;12.90;99.90;;;;;;4961216;29;20940;-79
2023/06/01 00:17:19;;;;;;;11.90;7.87;;;12.80;99.90;;;;;;4961517;29;20494;-79
2023/06/01 00:19:47;;;;;;;14.03;8.23;;;12.80;99.90;;;;;;4960807;29;20447;-80
2023/06/01 00:22:16;;;;;;;16.43;7.63;;;12.80;99.90;;;;;;4961505;29;20450;-80
2023/06/01 00:24:45;;;;;;;15.07;7.10;;;12.80;99.90;;;;;;4959966;29;20443;-79
2023/06/01 00:27:13;;;;;;;13.43;6.80;;;12.80;99.90;;;;;;4959361;29;21107;-79
2023/06/01 00:29:41;;;;;;;11.93;7.10;;;12.80;99.90;;;;;;4959077;29;20482;-79
2023/06/01 00:32:09;;;;;;;13.00;7.50;;;12.80;99.90;;;;;;4958641;29;20877;-79
2023/06/01 00:34:38;;;;;;;13.10;7.77;;;12.70;99.90;;;;;;4960231;29;20944;-79
2023/06/01 00:37:07;;;;;;;14.00;8.17;;;12.70;99.90;;;;;;4959672;29;20573;-80
2023/06/01 00:39:35;;;;;;;15.77;8.97;;;12.70;99.90;;;;;;4958618;29;20478;-80
2023/06/01 00:42:05;;;;;;;11.27;7.80;;;12.70;99.90;;;;;;4958744;29;20498;-79
2023/06/01 00:44:33;;;;;;;11.77;7.77;;;12.70;99.90;;;;;;4959020;28;20509;-80
2023/06/01 00:47:02;;;;;;;14.27;7.63;;;12.70;99.90;;;;;;4962295;29;20542;-79
2023/06/01 00:49:30;;;;;;;14.30;7.70;;;12.70;99.90;;;;;;4962464;29;21098;-80
2023/06/01 00:51:59;;;;;;;14.30;7.57;;;12.70;99.90;;;;;;4962258;29;20461;-79
2023/06/01 00:54:29;;;;;;;13.83;6.70;;;12.70;99.90;;;;;;4962360;29;20502;-79
2023/06/01 00:56:57;;;;;;;11.43;7.77;;;12.70;99.90;;;;;;4959969;29;20529;-79
2023/06/01 00:59:26;;;;;;;15.80;8.10;;;12.70;99.90;;;;;;4960934;29;20449;-79
2023/06/01 01:01:54;;;;;;;11.93;7.23;;;12.70;99.90;;;;;;4959670;29;20464;-79
2023/06/01 01:04:25;;;;;;;15.57;8.00;;;12.60;99.90;;;;;;4960265;29;20501;-80
2023/06/01 01:07:03;;;;;;;12.53;7.27;;;12.60;99.90;;;;;;4959849;29;20470;-79
2023/06/01 01:09:40;;;;;;;11.20;7.60;;;12.60;99.90;;;;;;4959214;29;20458;-79
2023/06/01 01:12:15;;;;;;;12.40;7.50;;;12.60;99.90;;;;;;4961679;29;20494;-79
2023/06/01 01:14:50;;;;;;;10.80;6.23;;;12.60;99.90;;;;;;4960434;29;20449;-80
2023/06/01 01:17:34;;;;;;;13.13;7.50;;;12.60;99.90;;;;;;4960954;29;20995;-80
2023/06/01 01:20:08;;;;;;;14.73;8.67;;;12.60;99.90;;;;;;4960210;29;20446;-79
2023/06/01 01:23:13;;;;;;;11.53;8.33;;;12.60;99.90;;;;;;4960641;29;20443;-79
2023/06/01 01:26:13;;;;;;;11.30;7.60;;;12.60;99.90;;;;;;4961925;29;20450;-79
2023/06/01 01:28:49;;;;;;;12.53;7.97;;;12.60;99.90;;;;;;4960906;29;20848;-79
2023/06/01 01:31:20;;;;;;;12.40;7.80;;;12.60;99.90;;;;;;4960502;29;20442;-79
2023/06/01 01:33:49;;;;;;;12.53;8.00;;;12.60;99.90;;;;;;4959992;29;20467;-79
2023/06/01 01:36:18;;;;;;;12.37;7.47;;;12.60;99.90;;;;;;4960016;29;20517;-80
2023/06/01 01:38:46;;;;;;;12.80;7.80;;;12.60;99.90;;;;;;4960194;29;20489;-79
2023/06/01 01:41:14;;;;;;;12.20;6.97;;;12.60;99.90;;;;;;4959745;29;20458;-79
2023/06/01 01:43:43;;;;;;;13.10;7.63;;;12.60;99.90;;;;;;4959409;29;20955;-79
2023/06/01 01:46:22;;;;;;;13.00;7.40;;;12.60;99.90;;;;;;4960005;29;20494;-80
2023/06/01 01:48:59;;;;;;;11.33;7.00;;;12.60;99.90;;;;;;4960332;29;20435;-79
2023/06/01 01:51:37;;;;;;;14.50;6.30;;;12.60;99.90;;;;;;4959641;29;20936;-79
2023/06/01 01:54:07;;;;;;;10.40;6.80;;;12.60;99.90;;;;;;4959590;28;20477;-79
2023/06/01 01:56:37;;;;;;;13.60;7.77;;;12.60;99.90;;;;;;4962547;29;20511;-79
2023/06/01 01:59:06;;;;;;;12.67;7.43;;;12.60;99.90;;;;;;4963136;29;20792;-80
2023/06/01 02:01:36;;;;;;;11.00;7.43;;;12.60;99.90;;;;;;4963244;29;20498;-80
2023/06/01 02:04:07;;;;;;;12.83;7.00;;;12.60;99.90;;;;;;4964120;29;20442;-80
2023/06/01 02:06:36;;;;;;;16.03;7.47;;;12.60;99.90;;;;;;4963502;29;20480;-79
2023/06/01 02:09:06;;;;;;;12.80;7.40;;;12.60;99.90;;;;;;4963026;29;20457;-79
2023/06/01 02:11:35;;;;;;;12.10;7.97;;;12.60;99.90;;;;;;4963146;29;20454;-79
2023/06/01 02:14:03;;;;;;;16.70;8.33;;;12.60;99.90;;;;;;4964449;29;20458;-79
2023/06/01 02:16:31;;;;;;;14.40;7.53;;;12.60;99.90;;;;;;4963257;29;20470;-80
2023/06/01 02:19:02;;;;;;;13.80;7.53;;;12.60;99.90;;;;;;4964876;29;20493;-79
2023/06/01 02:21:32;;;;;;;12.77;7.77;;;12.60;99.90;;;;;;4962539;29;20462;-80
2023/06/01 02:24:05;;;;;;;12.20;8.03;;;12.60;99.90;;;;;;4962616;29;20471;-79
2023/06/01 02:26:34;;;;;;;14.83;7.90;;;12.60;99.90;;;;;;4963376;29;20467;-80
2023/06/01 02:29:04;;;;;;;12.50;7.67;;;12.60;99.90;;;;;;4962920;29;20446;-79
2023/06/01 02:31:33;;;;;;;12.37;7.27;;;12.60;99.90;;;;;;4962938;29;20473;-79
2023/06/01 02:34:04;;;;;;;19.37;7.80;;;12.60;99.90;;;;;;4962327;29;20458;-79
2023/06/01 02:36:32;;;;;;;12.50;7.80;;;12.60;99.90;;;;;;4961828;29;20569;-80
2023/06/01 02:39:01;;;;;;;13.50;7.70;;;12.60;99.90;;;;;;4965265;29;21046;-79
2023/06/01 02:41:29;;;;;;;10.27;5.80;;;12.60;99.90;;;;;;4966240;29;20455;-80
2023/06/01 02:43:57;;;;;;;15.20;6.67;;;12.60;99.90;;;;;;4964603;29;20447;-79
2023/06/01 02:46:27;;;;;;;12.20;6.83;;;12.60;99.90;;;;;;4963837;29;20486;-79
2023/06/01 02:48:56;;;;;;;11.50;6.27;;;12.60;99.90;;;;;;4964975;29;20461;-79
2023/06/01 02:51:25;;;;;;;11.43;5.97;;;12.60;99.90;;;;;;4964904;29;20446;-79
2023/06/01 02:54:04;;;;;;;13.60;7.63;;;12.60;99.90;;;;;;4963454;29;20474;-79
2023/06/01 02:56:32;;;;;;;10.80;6.93;;;12.60;99.90;;;;;;4962869;29;20482;-79
2023/06/01 02:59:09;;;;;;;11.50;6.07;;;12.50;99.90;;;;;;4963556;29;20458;-79
2023/06/01 03:01:44;;;;;;;10.47;6.03;;;12.50;99.90;;;;;;4963743;29;20497;-80
2023/06/01 03:04:12;;;;;;;12.73;7.30;;;12.50;99.90;;;;;;4963222;29;20996;-80
2023/06/01 03:06:43;;;;;;;12.17;6.80;;;12.60;99.90;;;;;;4963698;28;20462;-80
2023/06/01 03:09:26;;;;;;;11.23;7.20;;;12.50;99.90;;;;;;4965375;29;20877;-80
2023/06/01 03:12:13;;;;;;;12.10;6.40;;;12.50;99.90;;;;;;4964823;29;20491;-80
2023/06/01 03:14:42;;;;;;;12.60;6.87;;;12.60;99.90;;;;;;4963263;29;20545;-79
2023/06/01 03:17:10;;;;;;;11.30;6.90;;;12.60;99.90;;;;;;4962821;29;20474;-79
2023/06/01 03:19:38;;;;;;;13.03;7.00;;;12.60;99.90;;;;;;4963033;29;20454;-80
2023/06/01 03:22:26;;;;;;;15.70;7.50;;;12.60;99.90;;;;;;4962978;29;20482;-80
2023/06/01 03:24:54;;;;;;;14.93;7.60;;;12.50;99.90;;;;;;4961615;29;20451;-79
2023/06/01 03:27:27;;;;;;;16.33;9.03;;;12.60;99.90;;;;;;4961284;29;20494;-80
2023/06/01 03:29:56;;;;;;;17.03;7.37;;;12.60;99.90;;;;;;4961057;29;20446;-80
2023/06/01 03:32:24;;;;;;;13.57;8.03;;;12.60;99.90;;;;;;4960226;29;20506;-79
2023/06/01 03:34:55;;;;;;;14.60;8.43;;;12.60;99.90;;;;;;4960084;29;20972;-79
2023/06/01 03:37:25;;;;;;;17.30;8.30;;;12.60;99.90;;;;;;4959619;29;20482;-79
2023/06/01 03:39:53;;;;;;;14.07;8.43;;;12.50;99.90;;;;;;4961404;29;20454;-79
2023/06/01 03:42:23;;;;;;;16.17;8.87;;;12.50;99.90;;;;;;4962067;29;20443;-80
2023/06/01 03:44:52;;;;;;;14.13;9.30;;;12.50;99.90;;;;;;4960146;29;21046;-78
2023/06/01 03:47:20;;;;;;;14.40;8.70;;;12.50;99.90;;;;;;4960092;29;20506;-79
2023/06/01 03:49:48;;;;;;;15.73;8.90;;;12.50;99.90;;;;;;4958854;29;20458;-79
2023/06/01 03:52:18;;;;;;;15.93;8.97;;;12.50;99.90;;;;;;4958956;29;20888;-79
2023/06/01 03:54:47;;;;;;;15.30;8.80;;;12.50;99.90;;;;;;4959000;29;20446;-79
2023/06/01 03:57:33;;;;;;;13.57;8.63;;;12.50;99.90;;;;;;4960223;29;20478;-79
2023/06/01 04:00:17;;;;;;;18.53;8.10;;;12.50;99.90;;;;;;4958934;29;20927;-79
2023/06/01 04:02:54;;;;;;;18.87;8.30;;;12.40;99.90;;;;;;4959956;29;20454;-79
2023/06/01 04:05:24;;;;;;;14.03;8.30;;;12.40;99.90;;;;;;4958619;29;20451;-79
2023/06/01 04:07:53;;;;;;;14.03;8.40;;;12.40;99.90;;;;;;4958961;29;20462;-79
2023/06/01 04:10:23;;;;;;;15.17;8.87;;;12.40;99.90;;;;;;4959248;29;20963;-79
2023/06/01 04:12:52;;;;;;;13.60;8.10;;;12.40;99.90;;;;;;4960038;29;20952;-78
2023/06/01 04:15:25;;;;;;;16.97;7.93;;;12.40;99.90;;;;;;4960531;29;20465;-79
2023/06/01 04:17:53;;;;;;;12.60;8.23;;;12.40;99.90;;;;;;4960424;28;20470;-79
2023/06/01 04:20:23;;;;;;;11.00;7.70;;;12.40;99.90;;;;;;4960024;29;20462;-78
2023/06/01 04:22:51;;;;;;;12.57;7.70;;;12.40;99.90;;;;;;4960664;28;20965;-79
2023/06/01 04:25:20;;;;;;;10.30;7.17;;;12.40;99.90;;;;;;4961375;29;20458;-79
2023/06/01 04:27:54;;;;;;;12.37;7.30;;;12.40;99.90;;;;;;4961588;28;20470;-79
2023/06/01 04:30:24;;;;;;;12.47;6.47;;;12.30;99.90;;;;;;4960817;29;20537;-79
2023/06/01 04:32:53;;;;;;;12.73;7.77;;;12.30;99.90;;;;;;4960026;29;20459;-79
2023/06/01 04:35:23;;;;;;;15.30;7.60;;;12.40;99.90;;;;;;4959253;29;20514;-79
2023/06/01 04:37:51;;;;;;;13.03;7.63;;;12.30;99.90;;;;;;4959582;29;21015;-79
2023/06/01 04:40:19;;;;;;;13.57;7.23;;;12.30;99.90;;;;;;4959034;29;20453;-79
2023/06/01 04:42:55;;;;;;;11.97;7.80;;;12.30;99.90;;;;;;4958909;29;20530;-79
2023/06/01 04:45:26;;;;;;;13.40;8.20;;;12.30;99.90;;;;;;4963151;29;20465;-79
2023/06/01 04:47:57;;;;;;;11.07;7.40;;;12.30;99.90;;;;;;4961352;29;20494;-80
2023/06/01 04:50:37;;;;;;;10.63;7.37;;;12.30;99.90;;;;;;4961357;29;20462;-79
2023/06/01 04:53:05;;;;;;;13.50;8.40;;;12.30;99.90;;;;;;4961308;29;20450;-80
2023/06/01 04:55:36;;;;;;;14.67;7.93;;;12.20;99.90;;;;;;4962922;28;20451;-79
2023/06/01 04:58:05;;;;;;;15.07;8.63;;;12.20;99.90;;;;;;4961855;29;20459;-79
2023/06/01 05:00:35;;;;;;;13.10;8.47;;;12.20;99.90;;;;;;4959554;29;20450;-78
2023/06/01 05:03:03;;;;;;;11.40;7.90;;;12.20;99.90;;;;;;4956905;29;20454;-78
2023/06/01 05:05:32;;;;;;;12.23;8.00;;;12.20;99.90;;;;;;4957138;29;20458;-79
2023/06/01 05:08:00;;;;;;;12.27;7.43;;;12.20;99.90;;;;;;4955953;29;20820;-78
2023/06/01 05:10:31;;;;;;;14.00;8.07;;;12.20;99.90;;;;;;4957872;29;20481;-78
2023/06/01 05:12:59;;;;;;;11.80;7.57;;;12.20;99.90;;;;;;4956706;29;20505;-78
2023/06/01 05:15:29;;;;;;;13.93;8.07;;;12.20;99.90;;;;;;4955555;29;20537;-78
2023/06/01 05:17:59;;;;;;;17.20;9.17;;;12.20;99.90;;;;;;4956272;29;20989;-78
2023/06/01 05:20:28;;;;;;;12.17;8.60;;;12.20;99.90;;;;;;4958797;29;20473;-79
2023/06/01 05:23:00;;;;;;;13.33;8.93;;;12.20;99.90;;;;;;4957306;29;20451;-78
2023/06/01 05:25:28;;;;;;;13.03;8.00;;;12.20;99.90;;;;;;4954950;29;20453;-78
2023/06/01 05:27:57;;;;;;;12.37;7.80;;;12.20;99.90;;;;;;4954728;29;20443;-78
2023/06/01 05:30:26;;;;;;;12.47;8.80;;;12.30;99.90;;;;;;4955667;28;20893;-78
2023/06/01 05:32:55;;;;;;;14.27;9.20;;;12.20;99.90;;;;;;4954569;29;20466;-77
2023/06/01 05:35:25;;;;;;;14.47;8.67;;;12.20;99.90;;;;;;4955270;29;20866;-78
2023/06/01 05:37:53;;;;;;;14.40;8.80;;;12.20;99.90;;;;;;4954661;29;20442;-78
2023/06/01 05:40:21;;;;;;;16.67;9.20;;;12.20;99.90;;;;;;4954078;29;20466;-77
2023/06/01 05:42:50;;;;;;;12.53;9.20;;;12.20;99.90;;;;;;4954326;29;20459;-78
2023/06/01 05:45:18;;;;;;;13.37;9.10;;;12.20;99.90;;;;;;4954322;28;20454;-78
2023/06/01 05:47:47;;;;;;;14.77;8.73;;;12.20;99.90;;;;;;4954198;29;20478;-77
2023/06/01 05:50:16;;;;;;;12.80;8.03;;;12.20;99.90;;;;;;4954146;29;20451;-78
2023/06/01 05:52:46;;;;;;;12.60;9.00;;;12.30;99.90;;;;;;4955474;28;20538;-78
2023/06/01 05:55:14;;;;;;;15.20;9.50;;;12.30;99.90;;;;;;4953953;28;20454;-77
2023/06/01 05:57:43;;;;;;;11.90;8.10;;;12.30;99.90;;;;;;4953833;29;20470;-77
2023/06/01 06:00:12;;;;;;;11.07;8.17;;;12.20;99.90;;;;;;4953761;29;20478;-77
2023/06/01 06:02:44;;;;;;;11.90;7.90;;;12.30;99.90;;;;;;4955674;29;20431;-77
2023/06/01 06:05:12;;;;;;;10.80;7.10;;;12.30;99.90;;;;;;4964282;28;20504;-76
2023/06/01 06:07:41;;;;;;;15.57;7.70;;;12.30;99.90;;;;;;4972995;28;20497;-77
2023/06/01 06:10:11;;;;;;;13.97;7.90;;;12.30;99.90;;;;;;4972977;28;20446;-77
2023/06/01 06:12:40;;;;;;;12.43;8.10;;;12.30;99.90;;;;;;4972966;28;20472;-76
2023/06/01 06:15:09;;;;;;;11.10;8.40;;;12.30;99.90;;;;;;4973211;28;20454;-77
2023/06/01 06:17:38;;;;;;;12.70;8.53;;;12.40;99.90;;;;;;4972841;28;20470;-77
2023/06/01 06:20:07;;;;;;;14.07;8.80;;;12.40;99.90;;;;;;4972818;28;20478;-77
2023/06/01 06:22:36;;;;;;;14.20;8.40;;;12.30;99.90;;;;;;4974201;28;20811;-77
2023/06/01 06:25:06;;;;;;;11.00;7.40;;;12.40;99.90;;;;;;4972750;28;20960;-77
2023/06/01 06:27:35;;;;;;;10.50;7.57;;;12.40;99.90;;;;;;4974221;28;20928;-77
2023/06/01 06:30:04;;;;;;;12.03;6.77;;;12.40;99.90;;;;;;4973054;28;20548;-77
2023/06/01 06:32:33;;;;;;;9.90;6.80;;;12.40;99.90;;;;;;4972948;28;20552;-77
2023/06/01 06:35:01;;;;;;;7.47;6.40;;;12.40;99.90;;;;;;4973995;28;20877;-76
2023/06/01 06:37:30;;;;;;;9.83;7.00;;;12.30;99.90;;;;;;4972607;28;20895;-77
2023/06/01 06:39:58;;;;;;;9.17;6.60;;;12.40;99.90;;;;;;4972594;28;20497;-77
2023/06/01 06:42:27;;;;;;;10.97;6.60;;;12.40;99.90;;;;;;4976563;28;20536;-77
2023/06/01 06:44:57;;;;;;;9.13;5.83;;;12.40;99.90;;;;;;4976341;28;20465;-77
2023/06/01 06:47:25;;;;;;;7.70;5.17;;;12.40;99.90;;;;;;4976015;28;20823;-77
2023/06/01 06:49:54;;;;;;;9.13;5.43;;;12.40;99.90;;;;;;4976158;28;20908;-77
2023/06/01 06:52:22;;;;;;;8.30;5.27;;;12.40;99.90;;;;;;4976674;28;20504;-78
2023/06/01 06:54:50;;;;;;;8.13;5.10;;;12.40;99.90;;;;;;4976082;28;20565;-77
2023/06/01 06:57:18;;;;;;;8.20;4.97;;;12.40;99.90;;;;;;4975987;28;20461;-77
2023/06/01 06:59:47;;;;;;;9.77;6.20;;;12.40;99.90;;;;;;4976242;28;20477;-78
2023/06/01 07:02:16;;;;;;;8.67;6.00;;;12.50;99.90;;;;;;4977279;28;20465;-77
2023/06/01 07:04:45;;;;;;;10.40;6.07;;;12.50;99.90;;;;;;4975910;28;20458;-77
2023/06/01 07:07:13;;;;;;;8.10;5.30;;;12.50;99.90;;;;;;4975814;28;20552;-77
2023/06/01 07:09:41;;;;;;;7.10;5.20;;;12.50;99.90;;;;;;4975998;28;20473;-77
2023/06/01 07:12:10;;;;;;;6.60;4.93;;;12.50;99.90;;;;;;4976186;28;20533;-78
2023/06/01 07:14:38;;;;;;;7.37;4.43;;;12.50;99.90;;;;;;4977678;28;20449;-77
2023/06/01 07:17:07;;;;;;;6.73;4.23;;;12.50;99.90;;;;;;4978106;28;20477;-78
2023/06/01 07:19:37;;;;;;;7.47;4.77;;;12.60;99.90;;;;;;4976153;28;20478;-77
2023/06/01 07:22:06;;;;;;;6.90;4.80;;;12.50;99.90;;;;;;4976850;28;20967;-78
2023/06/01 07:24:34;;;;;;;7.93;4.40;;;12.50;99.90;;;;;;4977332;28;20470;-78
2023/06/01 07:27:02;;;;;;;7.00;4.27;;;12.50;99.90;;;;;;4978452;28;20484;-78
2023/06/01 07:29:32;;;;;;;8.10;4.47;;;12.50;99.90;;;;;;4976684;28;20458;-78
2023/06/01 07:32:00;;;;;;;8.10;5.07;;;12.50;99.90;;;;;;4977941;28;20509;-77
2023/06/01 07:34:28;;;;;;;7.30;4.57;;;12.50;99.90;;;;;;4976177;28;20798;-77
2023/06/01 07:36:58;;;;;;;6.90;4.00;;;12.50;99.90;;;;;;4975979;28;20516;-78
2023/06/01 07:39:44;;;;;;;8.77;5.20;;;12.40;99.90;;;;;;4976060;28;20472;-77
2023/06/01 07:42:12;;;;;;;8.47;5.23;;;12.40;99.90;;;;;;4975681;28;20460;-77
2023/06/01 07:44:40;;;;;;;7.33;5.13;;;12.40;99.90;;;;;;4976066;28;20453;-77
2023/06/01 07:47:09;;;;;;;10.00;6.13;;;12.40;99.90;;;;;;4975242;28;21082;-77
2023/06/01 07:49:37;;;;;;;9.27;6.03;;;12.50;99.90;;;;;;4975132;28;21022;-77
2023/06/01 07:52:07;;;;;;;10.20;5.90;;;12.50;99.90;;;;;;4974841;28;20501;-77
2023/06/01 07:54:36;;;;;;;9.47;6.60;;;12.40;99.90;;;;;;4975107;28;20434;-78
2023/06/01 07:57:05;;;;;;;10.70;6.50;;;12.50;99.90;;;;;;4977308;28;20805;-78
2023/06/01 07:59:34;;;;;;;10.60;7.17;;;12.50;99.90;;;;;;4976360;28;20829;-77
2023/06/01 08:02:02;;;;;;;11.50;7.10;;;12.50;99.90;;;;;;4974991;28;20450;-77
2023/06/01 08:04:33;;;;;;;12.87;7.00;;;12.50;99.90;;;;;;4974844;28;20454;-77
2023/06/01 08:07:03;;;;;;;12.13;7.60;;;12.50;99.90;;;;;;4976221;28;20545;-77
2023/06/01 08:09:33;;;;;;;10.30;6.70;;;12.50;99.90;;;;;;4974845;28;20457;-77
2023/06/01 08:12:01;;;;;;;9.87;6.37;;;12.50;99.90;;;;;;4976148;28;20966;-77
2023/06/01 08:14:32;;;;;;;12.30;7.70;;;12.50;99.90;;;;;;4974703;28;20450;-77
2023/06/01 08:17:01;;;;;;;10.03;7.27;;;12.50;99.90;;;;;;4974816;28;20479;-77
2023/06/01 08:19:29;;;;;;;11.07;6.77;;;12.50;99.90;;;;;;4974507;28;20829;-77
2023/06/01 08:21:58;;;;;;;9.57;6.83;;;12.50;99.90;;;;;;4974332;28;20551;-77
2023/06/01 08:24:27;;;;;;;11.27;7.80;;;12.50;99.90;;;;;;4974684;28;20996;-78
2023/06/01 08:26:57;;;;;;;10.47;7.33;;;12.50;99.90;;;;;;4974237;28;20513;-77
2023/06/01 08:29:25;;;;;;;11.13;6.60;;;12.50;99.90;;;;;;4974256;28;21051;-77
2023/06/01 08:32:10;;;;;;;12.00;6.10;;;12.50;99.90;;;;;;4974208;28;20457;-76
2023/06/01 08:34:38;;;;;;;9.10;6.07;;;12.50;99.90;;;;;;4974252;28;20492;-77
2023/06/01 08:37:06;;;;;;;11.70;7.17;;;12.60;99.90;;;;;;4975394;28;20825;-77
2023/06/01 08:39:35;;;;;;;10.77;6.73;;;12.60;99.90;;;;;;4975590;28;20804;-77
2023/06/01 08:42:09;;;;;;;11.50;6.10;;;12.60;99.90;;;;;;4974079;28;20474;-77
2023/06/01 08:44:40;;;;;;;11.80;6.50;;;12.60;99.90;;;;;;4974148;28;20442;-77
2023/06/01 08:47:10;;;;;;;9.33;6.70;;;12.70;99.90;;;;;;4973758;28;20496;-77
2023/06/01 08:49:42;;;;;;;8.97;6.40;;;12.70;99.90;;;;;;4973962;28;20453;-77
2023/06/01 08:52:13;;;;;;;9.23;6.63;;;12.70;99.90;;;;;;4973983;28;20450;-78
2023/06/01 08:54:42;;;;;;;10.90;7.33;;;12.80;99.90;;;;;;4973887;28;20473;-77
2023/06/01 08:57:12;;;;;;;7.93;5.80;;;12.80;99.90;;;;;;4975010;28;20967;-77
2023/06/01 08:59:40;;;;;;;11.40;6.20;;;12.80;99.90;;;;;;4973810;28;20931;-77
2023/06/01 09:02:10;;;;;;;11.90;5.67;;;12.80;99.90;;;;;;4974800;28;20473;-77
2023/06/01 09:04:44;;;;;;;13.47;6.53;;;12.80;99.90;;;;;;4973500;28;20449;-77
2023/06/01 09:07:12;;;;;;;9.20;5.40;;;12.90;99.90;;;;;;4973503;28;20469;-77
2023/06/01 09:09:40;;;;;;;11.20;5.80;;;12.90;99.90;;;;;;4973617;28;20516;-77
2023/06/01 09:12:34;;;;;;;10.47;6.23;;;12.90;99.90;;;;;;4973570;28;20971;-78
2023/06/01 09:15:11;;;;;;;10.03;5.77;;;12.90;99.90;;;;;;4951467;28;20851;-77
2023/06/01 09:17:40;;;;;;;8.80;5.93;;;13.00;99.90;;;;;;4974237;28;20998;-78
2023/06/01 09:20:13;;;;;;;9.50;5.70;;;13.00;99.90;;;;;;4975114;28;20496;-78
2023/06/01 09:22:43;;;;;;;10.53;5.37;;;13.00;99.90;;;;;;4974621;28;21014;-78
2023/06/01 09:25:12;;;;;;;8.70;4.63;;;13.10;99.90;;;;;;4975366;28;20437;-78
2023/06/01 09:27:48;;;;;;;8.30;4.50;;;13.10;99.90;;;;;;4975105;28;20469;-79
2023/06/01 09:30:18;;;;;;;8.40;4.20;;;13.10;99.90;;;;;;4975822;28;20466;-78
2023/06/01 09:32:50;;;;;;;8.30;4.37;;;13.20;99.90;;;;;;4975262;28;20884;-78
2023/06/01 09:35:38;;;;;;;9.27;4.57;;;13.20;99.90;;;;;;4973942;28;20501;-78
2023/06/01 09:38:06;;;;;;;7.87;4.30;;;13.30;99.90;;;;;;4974528;28;20481;-78
2023/06/01 09:40:35;;;;;;;8.00;3.80;;;13.30;99.90;;;;;;4974401;28;20955;-77
2023/06/01 09:43:20;;;;;;;12.43;4.70;;;13.30;99.90;;;;;;4975836;28;20445;-78
2023/06/01 09:46:05;;;;;;;6.97;4.07;;;13.40;99.90;;;;;;4976049;28;20461;-78
2023/06/01 09:48:34;;;;;;;6.03;3.83;;;13.40;99.90;;;;;;4974750;28;20485;-80
2023/06/01 09:51:02;;;;;;;7.13;4.43;;;13.40;99.90;;;;;;4974559;28;20449;-78
2023/06/01 09:53:41;;;;;;;7.23;4.93;;;13.40;99.90;;;;;;4973945;28;20453;-78
2023/06/01 09:56:09;;;;;;;9.03;4.10;;;13.40;99.90;;;;;;4975727;28;20868;-78
2023/06/01 09:58:40;;;;;;;8.50;5.33;;;13.30;99.90;;;;;;4976271;28;20481;-79
2023/06/01 10:01:09;;;;;;;7.77;4.40;;;13.40;99.90;;;;;;4973943;28;20473;-79
2023/06/01 10:03:42;;;;;;;6.80;4.70;;;13.40;99.90;;;;;;4976276;28;20442;-79
2023/06/01 10:06:12;;;;;;;9.00;5.50;;;13.40;99.90;;;;;;4974599;28;20501;-79
2023/06/01 10:08:42;;;;;;;10.50;5.10;;;13.40;99.90;;;;;;4975732;28;20457;-79
2023/06/01 10:11:10;;;;;;;9.80;5.70;;;13.50;99.90;;;;;;4976686;28;20454;-80
2023/06/01 10:13:41;;;;;;;9.87;4.73;;;13.50;99.90;;;;;;4976147;28;20481;-79
2023/06/01 10:16:11;;;;;;;9.70;5.03;;;13.60;99.90;;;;;;4975564;28;20465;-80
2023/06/01 10:18:40;;;;;;;9.33;4.50;;;13.60;99.90;;;;;;4981554;28;20441;-79
2023/06/01 10:21:09;;;;;;;10.37;5.23;;;13.60;99.90;;;;;;4982692;28;20461;-80
2023/06/01 10:23:38;;;;;;;11.23;6.27;;;13.60;99.90;;;;;;4979535;28;20468;-79
2023/06/01 10:26:11;;;;;;;11.60;5.90;;;13.60;99.90;;;;;;4979504;28;20504;-79
2023/06/01 10:28:42;;;;;;;10.07;5.37;;;13.60;99.90;;;;;;4980299;28;20442;-81
2023/06/01 10:31:34;;;;;;;10.97;5.10;;;13.60;99.90;;;;;;4980183;28;20484;-80
2023/06/01 10:34:02;;;;;;;11.13;5.20;;;13.70;99.90;;;;;;4979180;28;20444;-78
2023/06/01 10:37:08;;;;;;;8.67;4.60;;;13.70;99.90;;;;;;4978817;28;20950;-81
2023/06/01 10:39:36;;;;;;;10.30;5.27;;;13.80;99.90;;;;;;4980807;28;20481;-78
2023/06/01 10:42:35;;;;;;;11.83;5.13;;;13.80;99.90;;;;;;4978377;28;20465;-77
2023/06/01 10:45:06;;;;;;;10.63;5.23;;;13.90;99.90;;;;;;4979616;28;20469;-78
2023/06/01 10:47:48;;;;;;;9.47;5.37;;;13.90;99.90;;;;;;4982016;28;20900;-80
2023/06/01 10:50:21;;;;;;;9.13;4.60;;;14.00;99.90;;;;;;4980255;28;20497;-79
2023/06/01 10:52:50;;;;;;;10.47;5.37;;;14.00;99.90;;;;;;4980338;28;20426;-79
2023/06/01 10:55:24;;;;;;;10.87;5.20;;;14.00;99.90;;;;;;4979412;28;20458;-79
2023/06/01 10:58:22;;;;;;;14.00;6.70;;;14.10;99.90;;;;;;4978750;28;20443;-79
2023/06/01 11:00:54;;;;;;;12.00;5.33;;;14.20;99.90;;;;;;4978360;28;20453;-79
2023/06/01 11:03:50;;;;;;;10.33;5.73;;;14.20;99.90;;;;;;4977787;28;20469;-78
2023/06/01 11:06:26;;;;;;;9.77;5.20;;;14.20;99.90;;;;;;4923183;28;20473;-79
2023/06/01 11:08:58;;;;;;;10.40;5.13;;;14.20;99.90;;;;;;4978741;28;20790;-78
2023/06/01 11:11:59;;;;;;;12.33;5.87;;;14.20;99.90;;;;;;4978803;28;20437;-79
2023/06/01 11:14:31;;;;;;;12.47;5.70;;;14.20;99.90;;;;;;4976933;28;20450;-78
2023/06/01 11:17:30;;;;;;;9.93;5.20;;;14.20;99.90;;;;;;4976978;28;20509;-79
2023/06/01 11:20:06;;;;;;;10.30;4.80;;;14.20;99.90;;;;;;4976945;28;20936;-79
2023/06/01 11:22:38;;;;;;;10.27;5.67;;;14.20;99.90;;;;;;4977197;28;20516;-79
2023/06/01 11:25:09;;;;;;;12.80;6.50;;;14.30;99.90;;;;;;4976693;28;20444;-79
2023/06/01 11:27:37;;;;;;;13.50;7.60;;;14.30;99.90;;;;;;4976495;28;20477;-78
2023/06/01 11:30:08;;;;;;;13.40;5.37;;;14.30;99.90;;;;;;4977527;28;20454;-79
2023/06/01 11:32:41;;;;;;;14.13;6.20;;;14.30;99.90;;;;;;4976603;28;20508;-79
2023/06/01 11:35:20;;;;;;;11.30;5.40;;;14.30;99.90;;;;;;4976718;28;20504;-78
2023/06/01 11:37:57;;;;;;;11.73;5.83;;;14.40;99.90;;;;;;4977040;28;20483;-79
2023/06/01 11:40:26;;;;;;;12.13;5.87;;;14.40;99.90;;;;;;4978343;28;20418;-79
2023/06/01 11:43:00;;;;;;;9.83;5.33;;;14.50;99.90;;;;;;4976987;28;20469;-80
2023/06/01 11:45:28;;;;;;;9.73;5.20;;;14.50;99.90;;;;;;4976770;28;20450;-79
2023/06/01 11:47:58;;;;;;;12.53;5.40;;;14.50;99.90;;;;;;4976573;28;20457;-78
2023/06/01 11:50:29;;;;;;;10.43;5.83;;;14.60;99.90;;;;;;4976327;28;21101;-79
2023/06/01 11:52:57;;;;;;;12.43;6.73;;;14.60;99.90;;;;;;4975865;28;20517;-79
2023/06/01 11:55:26;;;;;;;9.40;5.50;;;14.70;99.90;;;;;;4975984;28;20449;-80
2023/06/01 11:57:54;;;;;;;10.23;6.60;;;14.70;99.90;;;;;;4976033;28;20457;-79
2023/06/01 12:00:23;;;;;;;10.87;5.43;;;14.70;99.90;;;;;;4975800;28;20663;-78
2023/06/01 12:03:10;;;;;;;11.17;6.23;;;14.80;99.90;;;;;;4977376;28;20545;-79
2023/06/01 12:05:45;;;;;;;8.73;5.33;;;14.80;99.90;;;;;;4976837;28;20927;-79
2023/06/01 12:08:18;;;;;;;8.83;5.70;;;14.90;99.90;;;;;;4976134;28;20852;-79
2023/06/01 12:10:47;;;;;;;9.87;6.57;;;15.00;99.90;;;;;;4975723;28;20501;-79
2023/06/01 12:13:16;;;;;;;11.37;6.63;;;15.00;99.90;;;;;;4975426;28;20553;-79
2023/06/01 12:15:45;;;;;;;10.77;6.80;;;15.10;99.90;;;;;;4976468;28;20449;-78
2023/06/01 12:18:15;;;;;;;12.67;7.10;;;15.10;99.90;;;;;;4976616;28;20469;-78
2023/06/01 12:20:45;;;;;;;10.63;6.80;;;15.10;99.90;;;;;;4976566;28;20453;-78
2023/06/01 12:23:15;;;;;;;12.50;6.47;;;15.10;99.90;;;;;;4977773;28;20469;-79
2023/06/01 12:25:51;;;;;;;11.17;7.07;;;15.00;99.90;;;;;;4975560;28;20449;-79
2023/06/01 12:28:21;;;;;;;12.53;8.27;;;15.00;99.90;;;;;;4976187;28;20969;-79
2023/06/01 12:30:49;;;;;;;12.23;7.20;;;15.00;99.90;;;;;;4975843;28;20453;-79
2023/06/01 12:33:35;;;;;;;10.57;6.97;;;15.00;99.90;;;;;;4975868;28;20453;-79
2023/06/01 12:36:06;;;;;;;12.23;6.40;;;15.00;99.90;;;;;;4977945;28;20488;-79
2023/06/01 12:38:38;;;;;;;14.07;7.70;;;15.00;99.90;;;;;;4976545;28;20866;-79
2023/06/01 12:41:08;;;;;;;11.13;6.10;;;14.90;99.90;;;;;;4975544;28;20445;-78
2023/06/01 12:43:37;;;;;;;13.13;6.03;;;14.90;99.90;;;;;;4976822;28;20444;-79
2023/06/01 12:46:06;;;;;;;13.47;6.73;;;14.80;99.90;;;;;;4976020;28;20444;-78
2023/06/01 12:48:37;;;;;;;13.40;6.90;;;14.80;99.90;;;;;;4979436;28;20491;-79
2023/06/01 12:51:07;;;;;;;14.70;6.30;;;14.90;99.90;;;;;;4974821;28;20437;-78
2023/06/01 12:53:36;;;;;;;10.60;6.17;;;14.80;99.90;;;;;;4975142;28;20504;-78
2023/06/01 12:56:04;;;;;;;10.00;6.50;;;14.90;99.90;;;;;;4974932;28;20473;-79
2023/06/01 12:58:33;;;;;;;11.80;6.90;;;14.80;99.90;;;;;;4974981;28;20449;-78
2023/06/01 13:01:01;;;;;;;15.77;7.03;;;14.80;99.90;;;;;;4976181;28;20448;-78